createdAt,value
2023-04-27T00:01:09.692Z,72.27
2023-04-27T00:03:36.474Z,71.79
2023-04-27T00:06:03.430Z,71.77
2023-04-27T00:08:31.686Z,72.05
2023-04-27T00:10:58.512Z,71.83
2023-04-27T00:13:25.165Z,72.68
2023-04-27T00:15:52.157Z,73.41
2023-04-27T00:18:19.230Z,73.40
2023-04-27T00:20:46.180Z,73.73
2023-04-27T00:23:12.781Z,74.44
2023-04-27T00:25:41.168Z,74.49
2023-04-27T00:28:07.772Z,74.30
2023-04-27T00:30:34.378Z,74.77
2023-04-27T00:33:01.137Z,74.36
2023-04-27T00:35:27.815Z,74.28
2023-04-27T00:37:54.556Z,74.91
2023-04-27T00:40:21.520Z,74.86
2023-04-27T00:42:49.452Z,74.77
2023-04-27T00:45:16.338Z,74.48
2023-04-27T00:47:44.989Z,74.48
2023-04-27T00:50:11.721Z,74.55
2023-04-27T00:52:38.943Z,74.50
2023-04-27T00:55:06.535Z,74.07
2023-04-27T00:57:33.400Z,74.47
2023-04-27T01:00:01.497Z,74.49
2023-04-27T01:02:29.783Z,75.53
2023-04-27T01:04:56.919Z,75.81
2023-04-27T01:07:25.312Z,76.84
2023-04-27T01:09:52.128Z,77.59
2023-04-27T01:12:18.684Z,77.48
2023-04-27T01:14:45.518Z,77.42
2023-04-27T01:17:14.039Z,77.38
2023-04-27T01:19:40.825Z,77.66
2023-04-27T01:22:07.443Z,77.54
2023-04-27T01:24:35.355Z,77.07
2023-04-27T01:27:04.824Z,77.72
2023-04-27T01:29:31.422Z,76.97
2023-04-27T01:31:58.071Z,77.66
2023-04-27T01:34:24.679Z,77.97
2023-04-27T01:36:51.209Z,78.05
2023-04-27T01:39:17.816Z,77.66
2023-04-27T01:41:45.772Z,77.61
2023-04-27T01:44:12.392Z,77.36
2023-04-27T01:46:39.011Z,78.10
2023-04-27T01:49:07.076Z,78.38
2023-04-27T01:51:34.117Z,77.73
2023-04-27T01:54:00.900Z,77.69
2023-04-27T01:56:27.464Z,77.83
2023-04-27T01:58:56.974Z,77.46
2023-04-27T02:01:24.367Z,78.03
2023-04-27T02:03:51.124Z,77.70
2023-04-27T02:06:17.825Z,78.09
2023-04-27T02:08:46.044Z,77.58
2023-04-27T02:11:12.732Z,77.68
2023-04-27T02:13:39.639Z,77.12
2023-04-27T02:16:08.235Z,77.15
2023-04-27T02:18:34.780Z,76.94
2023-04-27T02:21:02.019Z,76.60
2023-04-27T02:23:28.568Z,76.78
2023-04-27T02:25:55.434Z,76.32
2023-04-27T02:28:24.585Z,75.68
2023-04-27T02:30:51.514Z,75.99
2023-04-27T02:33:19.474Z,77.15
2023-04-27T02:35:46.080Z,77.43
2023-04-27T02:38:12.602Z,77.89
2023-04-27T02:40:39.199Z,78.30
2023-04-27T02:43:06.644Z,78.79
2023-04-27T02:45:37.246Z,79.55
2023-04-27T02:48:06.011Z,79.02
2023-04-27T02:50:40.462Z,79.60
2023-04-27T02:53:07.380Z,79.40
2023-04-27T02:55:33.934Z,79.34
2023-04-27T02:58:00.575Z,79.07
2023-04-27T03:00:27.207Z,78.36
2023-04-27T03:02:53.988Z,78.57
2023-04-27T03:05:21.095Z,78.83
2023-04-27T03:07:49.095Z,78.81
2023-04-27T03:10:15.646Z,79.21
2023-04-27T03:12:43.000Z,79.48
2023-04-27T03:15:10.282Z,79.31
2023-04-27T03:17:36.912Z,80.06
2023-04-27T03:20:04.105Z,79.90
2023-04-27T03:22:31.090Z,80.11
2023-04-27T03:24:59.133Z,80.26
2023-04-27T03:27:25.740Z,80.59
2023-04-27T03:29:52.542Z,80.40
2023-04-27T03:32:19.379Z,80.22
2023-04-27T03:34:45.977Z,80.19
2023-04-27T03:37:12.698Z,79.96
2023-04-27T03:39:39.768Z,80.33
2023-04-27T03:42:07.837Z,80.13
2023-04-27T03:44:34.741Z,80.58
2023-04-27T03:47:01.813Z,80.19
2023-04-27T03:49:28.862Z,80.08
2023-04-27T03:51:56.088Z,80.12
2023-04-27T03:54:22.637Z,80.13
2023-04-27T03:56:49.791Z,79.98
2023-04-27T03:59:19.203Z,80.26
2023-04-27T04:01:49.326Z,80.77
2023-04-27T04:04:16.315Z,80.90
2023-04-27T04:06:43.224Z,80.35
2023-04-27T04:09:11.546Z,80.30
2023-04-27T04:11:39.602Z,80.12
2023-04-27T04:14:07.189Z,80.15
2023-04-27T04:16:35.367Z,80.26
2023-04-27T04:19:01.926Z,80.21
2023-04-27T04:21:28.516Z,79.78
2023-04-27T04:23:55.273Z,79.96
2023-04-27T04:26:23.056Z,80.15
2023-04-27T04:28:49.549Z,80.20
2023-04-27T04:31:16.120Z,80.64
2023-04-27T04:33:44.077Z,81.05
2023-04-27T04:36:10.813Z,80.34
2023-04-27T04:38:37.954Z,80.87
2023-04-27T04:41:05.032Z,80.61
2023-04-27T04:43:33.390Z,80.65
2023-04-27T04:46:03.654Z,80.98
2023-04-27T04:48:30.231Z,80.73
2023-04-27T04:50:58.146Z,80.65
2023-04-27T04:53:24.728Z,80.88
2023-04-27T04:55:51.326Z,80.96
2023-04-27T04:58:17.892Z,80.91
2023-04-27T05:00:44.549Z,80.80
2023-04-27T05:03:11.541Z,80.63
2023-04-27T05:05:38.120Z,80.69
2023-04-27T05:08:06.300Z,81.37
2023-04-27T05:10:32.865Z,81.29
2023-04-27T05:12:59.406Z,81.60
2023-04-27T05:15:26.076Z,81.83
2023-04-27T05:17:52.692Z,81.48
2023-04-27T05:20:19.386Z,81.76
2023-04-27T05:22:45.914Z,81.47
2023-04-27T05:25:13.858Z,81.68
2023-04-27T05:27:40.450Z,82.03
2023-04-27T05:30:08.162Z,82.09
2023-04-27T05:32:34.735Z,82.03
2023-04-27T05:35:01.277Z,82.03
2023-04-27T05:37:27.832Z,82.40
2023-04-27T05:39:54.458Z,82.53
2023-04-27T05:42:22.375Z,82.50
2023-04-27T05:44:48.916Z,82.77
2023-04-27T05:47:15.446Z,82.40
2023-04-27T05:49:41.961Z,82.24
2023-04-27T05:52:08.510Z,81.99
2023-04-27T05:54:35.323Z,82.01
2023-04-27T05:57:01.840Z,81.32
2023-04-27T05:59:29.748Z,80.74
2023-04-27T06:01:56.297Z,80.45
2023-04-27T06:04:22.982Z,79.85
2023-04-27T06:06:49.697Z,79.15
2023-04-27T06:09:16.370Z,79.42
2023-04-27T06:11:42.965Z,79.32
2023-04-27T06:14:09.549Z,78.79
2023-04-27T06:16:37.467Z,77.52
2023-04-27T06:19:04.008Z,77.27
2023-04-27T06:21:32.322Z,77.27
2023-04-27T06:23:58.894Z,76.81
2023-04-27T06:26:25.442Z,76.84
2023-04-27T06:28:51.988Z,76.97
2023-04-27T06:31:18.836Z,75.26
2023-04-27T06:33:46.739Z,74.08
2023-04-27T06:36:13.340Z,73.58
2023-04-27T06:38:39.845Z,72.86
2023-04-27T06:41:06.354Z,72.82
2023-04-27T06:43:32.895Z,71.75
2023-04-27T06:45:59.471Z,71.65
2023-04-27T06:48:25.974Z,70.19
2023-04-27T06:50:53.886Z,68.06
2023-04-27T06:53:20.437Z,65.18
2023-04-27T06:55:48.532Z,62.75
2023-04-27T06:58:15.338Z,60.96
2023-04-27T07:00:41.901Z,60.20
2023-04-27T07:03:08.601Z,60.56
2023-04-27T07:05:35.396Z,59.21
2023-04-27T07:08:06.168Z,59.35
2023-04-27T07:10:35.131Z,58.92
2023-04-27T07:13:01.739Z,58.90
2023-04-27T07:15:28.363Z,58.29
2023-04-27T07:17:54.906Z,59.50
2023-04-27T07:20:21.540Z,58.88
2023-04-27T07:22:48.049Z,58.92
2023-04-27T07:25:16.246Z,57.90
2023-04-27T07:27:43.037Z,57.05
2023-04-27T07:30:10.472Z,56.62
2023-04-27T07:32:39.436Z,56.69
2023-04-27T07:35:09.502Z,57.42
2023-04-27T07:37:36.246Z,56.70
2023-04-27T07:40:03.148Z,56.00
2023-04-27T07:42:31.102Z,54.62
2023-04-27T07:44:57.618Z,53.85
2023-04-27T07:47:24.140Z,53.96
2023-04-27T07:49:50.702Z,52.38
2023-04-27T07:52:17.274Z,50.71
2023-04-27T07:54:43.817Z,49.78
2023-04-27T07:57:10.910Z,50.93
2023-04-27T07:59:39.250Z,48.52
2023-04-27T08:02:18.308Z,46.66
2023-04-27T08:04:46.295Z,47.10
2023-04-27T08:07:13.314Z,48.06
2023-04-27T08:09:40.014Z,47.71
2023-04-27T08:12:06.834Z,47.47
2023-04-27T08:14:34.354Z,49.15
2023-04-27T08:17:02.535Z,49.24
2023-04-27T08:19:29.307Z,48.67
2023-04-27T08:21:55.863Z,47.45
2023-04-27T08:24:22.559Z,46.50
2023-04-27T08:26:49.102Z,47.29
2023-04-27T08:29:26.959Z,47.69
2023-04-27T08:31:56.927Z,45.67
2023-04-27T08:34:25.129Z,46.29
2023-04-27T08:36:51.772Z,46.82
2023-04-27T08:39:18.481Z,45.71
2023-04-27T08:41:45.670Z,43.40
2023-04-27T08:44:12.313Z,44.16
2023-04-27T08:46:39.423Z,44.30
2023-04-27T08:49:06.431Z,43.48
2023-04-27T08:51:34.685Z,43.61
2023-04-27T08:54:01.522Z,43.35
2023-04-27T08:56:29.514Z,44.55
2023-04-27T08:58:57.857Z,44.34
2023-04-27T09:01:25.545Z,44.19
2023-04-27T09:03:56.079Z,42.70
2023-04-27T09:06:29.721Z,42.42
2023-04-27T09:08:57.748Z,43.45
2023-04-27T09:11:29.422Z,44.13
2023-04-27T09:13:55.922Z,41.45
2023-04-27T09:16:23.615Z,43.81
2023-04-27T09:18:50.366Z,44.06
2023-04-27T09:21:22.666Z,42.91
2023-04-27T09:23:49.607Z,41.59
2023-04-27T09:26:21.654Z,42.21
2023-04-27T09:28:49.928Z,40.66
2023-04-27T09:31:16.671Z,39.63
2023-04-27T09:33:44.886Z,40.68
2023-04-27T09:36:11.586Z,41.92
2023-04-27T09:38:38.432Z,42.58
2023-04-27T09:41:07.779Z,40.59
2023-04-27T09:43:36.142Z,39.11
2023-04-27T09:46:04.434Z,39.86
2023-04-27T09:48:31.343Z,40.33
2023-04-27T09:50:57.897Z,41.01
2023-04-27T09:53:28.992Z,39.54
2023-04-27T09:56:09.917Z,38.33
2023-04-27T09:58:54.552Z,39.07
2023-04-27T10:01:30.378Z,38.41
2023-04-27T10:04:11.635Z,38.04
2023-04-27T10:07:09.822Z,36.85
2023-04-27T10:09:37.766Z,38.00
2023-04-27T10:12:16.024Z,37.58
2023-04-27T10:14:51.695Z,36.65
2023-04-27T10:17:19.294Z,36.75
2023-04-27T10:19:58.366Z,37.32
2023-04-27T10:22:37.412Z,37.40
2023-04-27T10:25:13.199Z,38.12
2023-04-27T10:27:40.110Z,38.46
2023-04-27T10:30:12.006Z,37.80
2023-04-27T10:32:49.748Z,37.98
2023-04-27T10:35:16.798Z,35.64
2023-04-27T10:37:43.793Z,35.86
2023-04-27T10:40:13.050Z,36.71
2023-04-27T10:42:39.984Z,37.75
2023-04-27T10:45:07.819Z,36.03
2023-04-27T10:47:40.550Z,35.85
2023-04-27T10:50:08.977Z,35.40
2023-04-27T10:52:35.525Z,36.19
2023-04-27T10:55:13.628Z,35.81
2023-04-27T10:57:46.468Z,35.91
2023-04-27T11:00:16.469Z,36.01
2023-04-27T11:02:44.590Z,34.78
2023-04-27T11:05:17.909Z,35.38
2023-04-27T11:07:44.849Z,35.58
2023-04-27T11:10:15.526Z,34.57
2023-04-27T11:12:42.515Z,33.91
2023-04-27T11:15:09.974Z,36.21
2023-04-27T11:17:36.679Z,34.93
2023-04-27T11:20:05.934Z,35.99
2023-04-27T11:22:32.646Z,33.33
2023-04-27T11:24:59.231Z,34.73
2023-04-27T11:27:36.931Z,35.84
2023-04-27T11:30:04.233Z,34.53
2023-04-27T11:32:30.864Z,35.52
2023-04-27T11:34:59.606Z,35.84
2023-04-27T11:37:27.793Z,36.18
2023-04-27T11:39:54.934Z,35.67
2023-04-27T11:42:22.879Z,34.85
2023-04-27T11:44:53.625Z,35.76
2023-04-27T11:47:20.354Z,34.06
2023-04-27T11:49:47.940Z,34.63
2023-04-27T11:52:14.536Z,36.45
2023-04-27T11:54:48.537Z,35.95
2023-04-27T11:57:15.199Z,33.89
2023-04-27T11:59:41.972Z,34.42
2023-04-27T12:02:08.837Z,33.33
2023-04-27T12:04:35.572Z,32.05
2023-04-27T12:07:02.764Z,32.67
2023-04-27T12:09:29.498Z,34.40
2023-04-27T12:11:57.803Z,34.67
2023-04-27T12:14:24.327Z,33.90
2023-04-27T12:16:50.985Z,33.58
2023-04-27T12:19:17.553Z,33.55
2023-04-27T12:21:44.222Z,32.91
2023-04-27T12:24:10.813Z,32.62
2023-04-27T12:26:37.503Z,32.63
2023-04-27T12:29:05.421Z,32.96
2023-04-27T12:31:32.401Z,31.37
2023-04-27T12:33:59.075Z,32.63
2023-04-27T12:36:25.652Z,31.73
2023-04-27T12:38:52.165Z,32.90
2023-04-27T12:41:18.815Z,31.83
2023-04-27T12:43:45.360Z,33.37
2023-04-27T12:46:13.413Z,33.27
2023-04-27T12:48:40.018Z,30.58
2023-04-27T12:51:06.759Z,31.36
2023-04-27T12:53:33.349Z,30.96
2023-04-27T12:56:00.541Z,30.36
2023-04-27T12:58:27.280Z,30.84
2023-04-27T13:00:54.961Z,30.96
2023-04-27T13:03:23.065Z,30.83
2023-04-27T13:05:49.891Z,29.97
2023-04-27T13:08:16.475Z,28.97
2023-04-27T13:10:43.152Z,29.84
2023-04-27T13:13:09.685Z,29.81
2023-04-27T13:15:36.486Z,30.34
2023-04-27T13:18:03.124Z,30.36
2023-04-27T13:20:31.180Z,29.71
2023-04-27T13:22:57.972Z,30.01
2023-04-27T13:25:24.579Z,29.22
2023-04-27T13:27:51.182Z,29.11
2023-04-27T13:30:17.862Z,30.92
2023-04-27T13:32:44.435Z,30.50
2023-04-27T13:35:11.014Z,31.24
2023-04-27T13:37:40.040Z,30.61
2023-04-27T13:40:08.315Z,31.37
2023-04-27T13:42:34.867Z,31.56
2023-04-27T13:45:01.516Z,30.03
2023-04-27T13:47:28.061Z,30.36
2023-04-27T13:49:54.664Z,29.96
2023-04-27T13:52:21.520Z,30.86
2023-04-27T13:54:49.459Z,29.25
2023-04-27T13:57:16.010Z,29.28
2023-04-27T13:59:42.614Z,30.96
2023-04-27T14:02:09.217Z,28.51
2023-04-27T14:04:35.911Z,27.85
2023-04-27T14:07:02.570Z,29.68
2023-04-27T14:09:29.189Z,29.60
2023-04-27T14:11:57.460Z,30.09
2023-04-27T14:14:24.617Z,28.15
2023-04-27T14:16:51.813Z,28.77
2023-04-27T14:19:18.899Z,27.69
2023-04-27T14:21:45.558Z,26.45
2023-04-27T14:24:12.129Z,28.11
2023-04-27T14:26:38.892Z,31.14
2023-04-27T14:29:06.866Z,28.75
2023-04-27T14:31:33.456Z,29.18
2023-04-27T14:34:00.164Z,28.54
2023-04-27T14:36:26.718Z,28.71
2023-04-27T14:38:53.291Z,26.78
2023-04-27T14:41:19.866Z,26.80
2023-04-27T14:43:46.502Z,26.96
2023-04-27T14:46:20.917Z,27.29
2023-04-27T14:48:49.587Z,28.53
2023-04-27T14:51:16.581Z,27.79
2023-04-27T14:53:43.298Z,27.83
2023-04-27T14:56:09.889Z,27.32
2023-04-27T14:58:36.409Z,26.02
2023-04-27T15:01:03.355Z,26.90
2023-04-27T15:03:31.602Z,26.64
2023-04-27T15:05:58.273Z,27.19
2023-04-27T15:08:25.123Z,26.93
2023-04-27T15:10:51.700Z,28.00
2023-04-27T15:13:18.230Z,27.97
2023-04-27T15:15:44.793Z,28.75
2023-04-27T15:18:11.533Z,26.92
2023-04-27T15:20:39.410Z,26.93
2023-04-27T15:23:05.961Z,27.65
2023-04-27T15:25:32.609Z,26.13
2023-04-27T15:27:59.157Z,27.20
2023-04-27T15:30:25.886Z,27.75
2023-04-27T15:32:52.465Z,28.06
2023-04-27T15:35:19.054Z,26.65
2023-04-27T15:37:46.934Z,28.63
2023-04-27T15:40:13.598Z,27.86
2023-04-27T15:42:40.118Z,26.83
2023-04-27T15:45:09.995Z,27.24
2023-04-27T15:47:37.011Z,27.64
2023-04-27T15:50:04.244Z,27.60
2023-04-27T15:52:30.777Z,25.83
2023-04-27T15:54:58.750Z,25.05
2023-04-27T15:57:25.307Z,25.83
2023-04-27T15:59:52.059Z,27.24
2023-04-27T16:02:18.881Z,26.31
2023-04-27T16:04:45.492Z,25.67
2023-04-27T16:07:12.029Z,25.90
2023-04-27T16:09:38.639Z,26.10
2023-04-27T16:12:06.754Z,26.02
2023-04-27T16:14:33.295Z,27.76
2023-04-27T16:17:02.066Z,28.28
2023-04-27T16:19:28.891Z,29.15
2023-04-27T16:21:55.437Z,27.50
2023-04-27T16:24:22.022Z,28.73
2023-04-27T16:26:48.662Z,27.69
2023-04-27T16:29:16.839Z,28.02
2023-04-27T16:31:43.590Z,28.26
2023-04-27T16:34:10.151Z,28.12
2023-04-27T16:36:36.695Z,28.94
2023-04-27T16:39:03.396Z,29.43
2023-04-27T16:41:29.923Z,29.61
2023-04-27T16:43:56.572Z,29.55
2023-04-27T16:46:24.555Z,29.50
2023-04-27T16:48:51.090Z,30.33
2023-04-27T16:51:17.620Z,31.16
2023-04-27T16:53:44.152Z,31.37
2023-04-27T16:56:10.713Z,31.27
2023-04-27T16:58:37.281Z,31.82
2023-04-27T17:01:03.874Z,31.54
2023-04-27T17:03:31.892Z,32.38
2023-04-27T17:05:58.480Z,32.44
2023-04-27T17:08:25.051Z,32.61
2023-04-27T17:10:52.515Z,32.56
2023-04-27T17:13:19.123Z,33.07
2023-04-27T17:15:45.698Z,32.79
2023-04-27T17:18:12.235Z,33.10
2023-04-27T17:20:41.677Z,33.77
2023-04-27T17:23:08.949Z,34.96
2023-04-27T17:25:35.650Z,34.24
2023-04-27T17:28:02.182Z,34.89
2023-04-27T17:30:29.105Z,34.36
2023-04-27T17:32:55.694Z,34.63
2023-04-27T17:35:25.104Z,35.20
2023-04-27T17:37:53.354Z,35.02
2023-04-27T17:40:19.979Z,35.60
2023-04-27T17:42:46.878Z,35.83
2023-04-27T17:45:13.696Z,36.07
2023-04-27T17:47:40.384Z,36.12
2023-04-27T17:50:08.483Z,37.81
2023-04-27T17:52:35.113Z,37.14
2023-04-27T17:55:03.213Z,37.47
2023-04-27T17:57:29.714Z,38.00
2023-04-27T17:59:56.389Z,38.45
2023-04-27T18:02:23.067Z,39.94
2023-04-27T18:04:49.697Z,40.21
2023-04-27T18:07:16.226Z,40.57
2023-04-27T18:09:42.728Z,40.65
2023-04-27T18:12:10.614Z,40.69
2023-04-27T18:14:37.451Z,41.09
2023-04-27T18:17:04.233Z,41.62
2023-04-27T18:19:30.801Z,40.95
2023-04-27T18:21:57.369Z,41.41
2023-04-27T18:24:23.928Z,41.80
2023-04-27T18:26:50.530Z,42.89
2023-04-27T18:29:18.634Z,43.54
2023-04-27T18:31:45.461Z,44.32
2023-04-27T18:34:12.208Z,44.57
2023-04-27T18:36:38.776Z,44.47
2023-04-27T18:39:05.287Z,44.92
2023-04-27T18:41:31.982Z,45.60
2023-04-27T18:44:03.041Z,46.17
2023-04-27T18:46:31.083Z,46.35
2023-04-27T18:48:57.754Z,46.75
2023-04-27T18:51:24.634Z,47.40
2023-04-27T18:53:51.121Z,47.65
2023-04-27T18:56:17.718Z,47.75
2023-04-27T18:58:44.323Z,48.28
2023-04-27T19:01:18.569Z,48.47
2023-04-27T19:03:46.718Z,48.10
2023-04-27T19:06:13.402Z,48.28
2023-04-27T19:08:39.985Z,48.36
2023-04-27T19:11:06.529Z,48.07
2023-04-27T19:13:33.128Z,49.08
2023-04-27T19:15:59.699Z,49.66
2023-04-27T19:18:26.682Z,49.43
2023-04-27T19:20:54.560Z,49.59
2023-04-27T19:23:21.118Z,50.54
2023-04-27T19:25:47.718Z,50.93
2023-04-27T19:28:16.009Z,51.15
2023-04-27T19:30:42.594Z,50.93
2023-04-27T19:33:09.219Z,52.01
2023-04-27T19:35:35.847Z,51.97
2023-04-27T19:38:03.998Z,51.78
2023-04-27T19:40:32.567Z,51.60
2023-04-27T19:42:59.353Z,51.60
2023-04-27T19:45:25.918Z,51.97
2023-04-27T19:47:52.596Z,52.62
2023-04-27T19:50:19.487Z,53.04
2023-04-27T19:52:46.268Z,53.64
2023-04-27T19:55:14.278Z,54.81
2023-04-27T19:57:40.969Z,54.66
2023-04-27T20:00:08.615Z,55.12
2023-04-27T20:02:39.831Z,55.71
2023-04-27T20:05:07.121Z,55.50
2023-04-27T20:07:33.898Z,56.24
2023-04-27T20:10:00.872Z,56.99
2023-04-27T20:12:43.543Z,57.94
2023-04-27T20:15:15.605Z,58.35
2023-04-27T20:17:42.244Z,59.56
2023-04-27T20:20:09.740Z,58.91
2023-04-27T20:22:36.620Z,58.88
2023-04-27T20:25:03.614Z,58.88
2023-04-27T20:27:31.946Z,57.52
2023-04-27T20:29:58.525Z,57.43
2023-04-27T20:32:25.107Z,58.04
2023-04-27T20:34:51.757Z,58.40
2023-04-27T20:37:18.400Z,59.01
2023-04-27T20:39:45.023Z,59.09
2023-04-27T20:42:11.581Z,58.71
2023-04-27T20:44:39.622Z,59.09
2023-04-27T20:47:06.199Z,59.28
2023-04-27T20:49:35.383Z,58.88
2023-04-27T20:52:03.304Z,58.24
2023-04-27T20:54:29.873Z,57.90
2023-04-27T20:56:56.390Z,57.89
2023-04-27T20:59:22.981Z,57.94
2023-04-27T21:01:54.991Z,58.22
2023-04-27T21:04:21.756Z,58.41
2023-04-27T21:06:48.337Z,58.36
2023-04-27T21:09:14.942Z,58.59
2023-04-27T21:11:41.545Z,58.90
2023-04-27T21:14:08.142Z,59.66
2023-04-27T21:16:34.751Z,59.42
2023-04-27T21:19:02.754Z,59.16
2023-04-27T21:21:29.311Z,59.84
2023-04-27T21:24:06.776Z,60.65
2023-04-27T21:26:34.671Z,60.75
2023-04-27T21:29:01.203Z,60.67
2023-04-27T21:31:27.850Z,60.85
2023-04-27T21:33:54.423Z,61.52
2023-04-27T21:36:22.343Z,61.53
2023-04-27T21:38:48.992Z,61.96
2023-04-27T21:41:15.600Z,62.46
2023-04-27T21:43:42.223Z,62.54
2023-04-27T21:46:09.270Z,62.99
2023-04-27T21:48:35.941Z,62.81
2023-04-27T21:51:02.869Z,63.52
2023-04-27T21:53:30.790Z,63.22
2023-04-27T21:55:57.512Z,62.93
2023-04-27T21:58:24.112Z,62.84
2023-04-27T22:00:50.771Z,62.78
2023-04-27T22:03:17.747Z,63.01
2023-04-27T22:05:44.489Z,62.41
2023-04-27T22:08:10.991Z,62.72
2023-04-27T22:10:38.951Z,62.21
2023-04-27T22:13:17.704Z,62.58
2023-04-27T22:15:45.305Z,62.43
2023-04-27T22:18:11.849Z,62.38
2023-04-27T22:20:38.445Z,62.43
2023-04-27T22:23:05.062Z,62.38
2023-04-27T22:25:33.164Z,62.46
2023-04-27T22:28:01.345Z,62.54
2023-04-27T22:30:28.324Z,62.69
2023-04-27T22:32:55.671Z,62.61
2023-04-27T22:35:27.147Z,63.22
2023-04-27T22:37:54.836Z,63.38
2023-04-27T22:40:21.486Z,63.96
2023-04-27T22:42:48.091Z,63.84
2023-04-27T22:45:16.148Z,63.70
2023-04-27T22:47:42.792Z,64.85
2023-04-27T22:50:10.341Z,64.90
2023-04-27T22:52:37.204Z,65.40
2023-04-27T22:55:04.407Z,65.08
2023-04-27T22:57:30.982Z,64.91
2023-04-27T22:59:57.598Z,65.36
2023-04-27T23:02:25.635Z,65.88
2023-04-27T23:04:52.192Z,66.03
2023-04-27T23:07:18.762Z,66.36
2023-04-27T23:09:45.503Z,66.61
2023-04-27T23:12:12.099Z,66.98
2023-04-27T23:14:38.654Z,66.61
2023-04-27T23:17:05.285Z,66.99
2023-04-27T23:19:33.236Z,67.33
2023-04-27T23:22:00.361Z,67.04
2023-04-27T23:24:26.965Z,67.04
2023-04-27T23:26:53.562Z,66.87
2023-04-27T23:29:20.077Z,66.45
2023-04-27T23:31:46.654Z,66.23
2023-04-27T23:34:13.322Z,66.08
2023-04-27T23:36:41.493Z,66.92
2023-04-27T23:39:08.112Z,66.59
2023-04-27T23:41:34.694Z,66.82
2023-04-27T23:44:01.244Z,66.70
2023-04-27T23:46:28.066Z,67.24
2023-04-27T23:48:54.610Z,67.55
2023-04-27T23:51:21.277Z,69.17
2023-04-27T23:53:49.159Z,69.10
2023-04-27T23:56:17.024Z,69.20
2023-04-27T23:58:43.591Z,70.08
